OITM  Sahand Airport

Add Bookmark

Maragheh, Iran

Status IATA
Operational ACP
Latitude Longitude
37° 20' 52" N 46° 7' 40" E
37.348000 46.127899
Local (DST + 5) UTC (GMT + 4)
Jan 31, 2015 01:31 Jan 31, 2015 10:01
Sunrise-Sunset Local UTC
Begin Civil Twilight 07:00 03:30
Sunrise 07:28 03:58
Sunset 05:49 14:19
End Civil Twilight 06:17 14:47

Current Weather

METAR Observed VFR
OITM 310900Z 06008KT 9999 FEW035TCU FEW190 04/M00 Q1020 Sat, Jan 31, 2015 @ 09:00 UTC
(1 Hour, 1 Minute ago)
Visual Flight Rules
Wind Visibility Clouds Conditions
060° at 8 knots (15 kph) 10 km or more
  • Few at 3,500' AGL
  • Few at 19,000' AGL
  • No significant weather
Temperatures Readings Precipitation
Current Temp 4°C (39°F)
Dewpoint 0°C (32°F)
Humidity 75%
Altimeter 30.12"Hg
Sea Level Pressure 1020mb
Field Elevation 4396.33'
None Recorded

Additional weather within a 92.6km radius of OITM

Map ICAO Location
OITT 87.8km N (006°)

24 Hour Weather History

Loading
-

24 Hour Weather Graphs

Loading
-

CheckWX.com is intended as a tool to help pilots better visualize weather data. It is not intended as a substitute for an official weather briefing obtained from a Flight Service Station. CheckWX.com does not meet the FAA requirements for an official pre-flight weather briefing. Therefore, it's important that pilots still call and obtain an official FSS pre-flight weather briefing.